Terminal Aerodrome Forecast
Issued by NWS Upton, NY

Home | Current Version | Previous Version | Text Only | Print | Product List | Glossary On
Versions: 1 2 3 4 5 6 7 8 9 10 11 12 13 14 15 16 17 18 19 20 21 22 23 24 25 26 27 28
000
FTUS41 KOKX 300231 AAA
TAFISP
TAF AMD
KISP 300231Z 3003/3024 22006KT P6SM SCT250
     FM301000 22005KT 6SM BR FEW030 SCT250
     FM301200 21009KT 6SM HZ SCT040
     FM301600 20013KT P6SM BKN050=

USA.gov is the U.S. government's official web portal to all federal, state and local government web resources and services.